Airport ID:CNV8
Update Time (UTC):21/05/2019 06:26
Wind Speed (Knots):5.836735
Wind Direction (Magnetic):270
Temperature (°C):3.7
Dew Point (°C):2.9
Humidity (%):94.6
Altimeter (inHg):30.03
Density Altitude (Feet):
Visibility (Miles):***
Clouds (Hundreds of feet):***
Present Weather:***
METAR:METAR CNV8 210630Z AUTO 28006KT /////NDV ////// 04/03 A3004

The data displayed is for advisory purposes only and is not to be used for flight planning or operations.

This page is not automatically refreshed. Reload the page to see current data.